sensor_id;sensor_type;location;lat;lon;timestamp;temperature;humidity
47520;DHT22;33252;48.122;11.538;2023-04-06T00:01:36;1.40;89.20
47520;DHT22;33252;48.122;11.538;2023-04-06T00:04:01;1.30;89.70
47520;DHT22;33252;48.122;11.538;2023-04-06T00:06:27;1.20;89.70
47520;DHT22;33252;48.122;11.538;2023-04-06T00:08:53;1.20;89.90
47520;DHT22;33252;48.122;11.538;2023-04-06T00:11:18;1.30;89.50
47520;DHT22;33252;48.122;11.538;2023-04-06T00:13:45;1.20;89.60
47520;DHT22;33252;48.122;11.538;2023-04-06T00:16:11;1.20;89.70
47520;DHT22;33252;48.122;11.538;2023-04-06T00:18:36;1.20;90.30
47520;DHT22;33252;48.122;11.538;2023-04-06T00:21:03;1.10;90.00
47520;DHT22;33252;48.122;11.538;2023-04-06T00:23:28;1.10;90.20
47520;DHT22;33252;48.122;11.538;2023-04-06T00:25:54;1.00;90.30
47520;DHT22;33252;48.122;11.538;2023-04-06T00:28:21;1.10;90.10
47520;DHT22;33252;48.122;11.538;2023-04-06T00:30:51;1.10;90.40
47520;DHT22;33252;48.122;11.538;2023-04-06T00:33:18;1.10;90.30
47520;DHT22;33252;48.122;11.538;2023-04-06T00:35:44;1.10;90.60
47520;DHT22;33252;48.122;11.538;2023-04-06T00:38:11;1.00;90.90
47520;DHT22;33252;48.122;11.538;2023-04-06T00:40:36;1.10;91.00
47520;DHT22;33252;48.122;11.538;2023-04-06T00:43:02;1.00;90.90
47520;DHT22;33252;48.122;11.538;2023-04-06T00:45:28;1.00;91.00
47520;DHT22;33252;48.122;11.538;2023-04-06T00:47:54;0.90;91.10
47520;DHT22;33252;48.122;11.538;2023-04-06T00:50:20;0.90;91.40
47520;DHT22;33252;48.122;11.538;2023-04-06T00:52:46;0.80;91.50
47520;DHT22;33252;48.122;11.538;2023-04-06T00:55:11;0.90;91.60
47520;DHT22;33252;48.122;11.538;2023-04-06T00:57:37;0.90;91.40
47520;DHT22;33252;48.122;11.538;2023-04-06T01:00:03;1.00;91.20
47520;DHT22;33252;48.122;11.538;2023-04-06T01:02:29;1.00;91.30
47520;DHT22;33252;48.122;11.538;2023-04-06T01:04:55;0.90;91.40
47520;DHT22;33252;48.122;11.538;2023-04-06T01:07:21;0.90;91.40
47520;DHT22;33252;48.122;11.538;2023-04-06T01:09:47;0.80;91.30
47520;DHT22;33252;48.122;11.538;2023-04-06T01:12:13;0.80;91.30
47520;DHT22;33252;48.122;11.538;2023-04-06T01:14:38;0.80;92.00
47520;DHT22;33252;48.122;11.538;2023-04-06T01:17:04;0.70;91.80
47520;DHT22;33252;48.122;11.538;2023-04-06T01:19:30;0.70;91.70
47520;DHT22;33252;48.122;11.538;2023-04-06T01:21:56;0.70;91.90
47520;DHT22;33252;48.122;11.538;2023-04-06T01:24:22;0.70;92.00
47520;DHT22;33252;48.122;11.538;2023-04-06T01:26:48;0.80;91.90
47520;DHT22;33252;48.122;11.538;2023-04-06T01:29:13;0.60;92.20
47520;DHT22;33252;48.122;11.538;2023-04-06T01:31:39;0.60;92.00
47520;DHT22;33252;48.122;11.538;2023-04-06T01:34:05;0.70;92.00
47520;DHT22;33252;48.122;11.538;2023-04-06T01:36:31;0.60;92.00
47520;DHT22;33252;48.122;11.538;2023-04-06T01:38:57;0.60;92.20
47520;DHT22;33252;48.122;11.538;2023-04-06T01:41:23;0.60;92.20
47520;DHT22;33252;48.122;11.538;2023-04-06T01:43:48;0.60;92.20
47520;DHT22;33252;48.122;11.538;2023-04-06T01:46:15;0.50;92.10
47520;DHT22;33252;48.122;11.538;2023-04-06T01:48:41;0.50;92.20
47520;DHT22;33252;48.122;11.538;2023-04-06T01:51:07;0.50;92.20
47520;DHT22;33252;48.122;11.538;2023-04-06T01:53:32;0.40;92.00
47520;DHT22;33252;48.122;11.538;2023-04-06T01:55:58;0.50;92.20
47520;DHT22;33252;48.122;11.538;2023-04-06T01:58:24;0.50;92.10
47520;DHT22;33252;48.122;11.538;2023-04-06T02:00:49;0.50;91.70
47520;DHT22;33252;48.122;11.538;2023-04-06T02:03:15;0.50;91.80
47520;DHT22;33252;48.122;11.538;2023-04-06T02:05:41;0.50;91.50
47520;DHT22;33252;48.122;11.538;2023-04-06T02:08:07;0.50;91.30
47520;DHT22;33252;48.122;11.538;2023-04-06T02:10:33;0.40;91.40
47520;DHT22;33252;48.122;11.538;2023-04-06T02:13:00;0.50;91.40
47520;DHT22;33252;48.122;11.538;2023-04-06T02:15:26;0.50;91.20
47520;DHT22;33252;48.122;11.538;2023-04-06T02:17:52;0.50;91.00
47520;DHT22;33252;48.122;11.538;2023-04-06T02:20:18;0.50;91.20
47520;DHT22;33252;48.122;11.538;2023-04-06T02:22:44;0.70;91.40
47520;DHT22;33252;48.122;11.538;2023-04-06T02:25:10;0.60;91.20
47520;DHT22;33252;48.122;11.538;2023-04-06T02:27:36;0.70;91.10
47520;DHT22;33252;48.122;11.538;2023-04-06T02:30:05;0.60;91.00
47520;DHT22;33252;48.122;11.538;2023-04-06T02:32:31;0.60;90.90
47520;DHT22;33252;48.122;11.538;2023-04-06T02:34:57;0.60;90.90
47520;DHT22;33252;48.122;11.538;2023-04-06T02:37:22;0.60;90.60
47520;DHT22;33252;48.122;11.538;2023-04-06T02:39:49;0.60;90.90
47520;DHT22;33252;48.122;11.538;2023-04-06T02:42:15;0.60;91.20
47520;DHT22;33252;48.122;11.538;2023-04-06T02:44:42;0.60;90.90
47520;DHT22;33252;48.122;11.538;2023-04-06T02:47:08;0.70;91.00
47520;DHT22;33252;48.122;11.538;2023-04-06T02:49:34;0.70;90.80
47520;DHT22;33252;48.122;11.538;2023-04-06T02:52:00;0.70;90.80
47520;DHT22;33252;48.122;11.538;2023-04-06T02:54:25;0.70;90.80
47520;DHT22;33252;48.122;11.538;2023-04-06T02:56:51;0.60;90.80
47520;DHT22;33252;48.122;11.538;2023-04-06T02:59:17;0.60;90.90
47520;DHT22;33252;48.122;11.538;2023-04-06T03:01:42;0.60;90.80
47520;DHT22;33252;48.122;11.538;2023-04-06T03:04:08;0.70;90.70
47520;DHT22;33252;48.122;11.538;2023-04-06T03:06:34;0.70;90.90
47520;DHT22;33252;48.122;11.538;2023-04-06T03:08:59;0.70;90.60
47520;DHT22;33252;48.122;11.538;2023-04-06T03:11:25;0.60;90.80
47520;DHT22;33252;48.122;11.538;2023-04-06T03:13:52;0.60;90.90
47520;DHT22;33252;48.122;11.538;2023-04-06T03:16:17;0.50;90.90
47520;DHT22;33252;48.122;11.538;2023-04-06T03:18:43;0.40;91.30
47520;DHT22;33252;48.122;11.538;2023-04-06T03:21:13;0.40;91.50
47520;DHT22;33252;48.122;11.538;2023-04-06T03:23:40;0.30;91.50
47520;DHT22;33252;48.122;11.538;2023-04-06T03:26:06;0.40;91.50
47520;DHT22;33252;48.122;11.538;2023-04-06T03:28:32;0.40;91.60
47520;DHT22;33252;48.122;11.538;2023-04-06T03:30:58;0.40;91.60
47520;DHT22;33252;48.122;11.538;2023-04-06T03:33:24;0.50;91.40
47520;DHT22;33252;48.122;11.538;2023-04-06T03:35:52;0.40;91.30
47520;DHT22;33252;48.122;11.538;2023-04-06T03:38:18;0.50;91.30
47520;DHT22;33252;48.122;11.538;2023-04-06T03:40:44;0.30;91.40
47520;DHT22;33252;48.122;11.538;2023-04-06T03:43:10;0.30;91.40
47520;DHT22;33252;48.122;11.538;2023-04-06T03:45:36;0.20;92.00
47520;DHT22;33252;48.122;11.538;2023-04-06T03:48:02;0.30;92.00
47520;DHT22;33252;48.122;11.538;2023-04-06T03:50:29;0.30;92.00
47520;DHT22;33252;48.122;11.538;2023-04-06T03:52:55;0.30;91.90
47520;DHT22;33252;48.122;11.538;2023-04-06T03:55:21;0.30;91.70
47520;DHT22;33252;48.122;11.538;2023-04-06T03:57:46;0.40;91.60
47520;DHT22;33252;48.122;11.538;2023-04-06T04:00:12;0.40;91.50
47520;DHT22;33252;48.122;11.538;2023-04-06T04:02:39;0.40;91.80
47520;DHT22;33252;48.122;11.538;2023-04-06T04:05:05;0.40;91.80
47520;DHT22;33252;48.122;11.538;2023-04-06T04:07:30;0.30;91.90
47520;DHT22;33252;48.122;11.538;2023-04-06T04:09:57;0.40;91.80
47520;DHT22;33252;48.122;11.538;2023-04-06T04:12:22;0.30;91.90
47520;DHT22;33252;48.122;11.538;2023-04-06T04:14:48;0.40;91.80
47520;DHT22;33252;48.122;11.538;2023-04-06T04:17:14;0.30;91.90
47520;DHT22;33252;48.122;11.538;2023-04-06T04:19:40;0.40;91.80
47520;DHT22;33252;48.122;11.538;2023-04-06T04:22:05;0.40;91.70
47520;DHT22;33252;48.122;11.538;2023-04-06T04:24:32;0.30;92.00
47520;DHT22;33252;48.122;11.538;2023-04-06T04:26:58;0.40;92.10
47520;DHT22;33252;48.122;11.538;2023-04-06T04:29:23;0.40;91.70
47520;DHT22;33252;48.122;11.538;2023-04-06T04:31:49;0.40;91.90
47520;DHT22;33252;48.122;11.538;2023-04-06T04:34:16;0.40;92.00
47520;DHT22;33252;48.122;11.538;2023-04-06T04:36:42;0.30;92.00
47520;DHT22;33252;48.122;11.538;2023-04-06T04:39:08;0.40;92.00
47520;DHT22;33252;48.122;11.538;2023-04-06T04:41:33;0.40;91.80
47520;DHT22;33252;48.122;11.538;2023-04-06T04:43:59;0.30;92.30
47520;DHT22;33252;48.122;11.538;2023-04-06T04:46:25;0.30;92.10
47520;DHT22;33252;48.122;11.538;2023-04-06T04:48:51;0.30;92.10
47520;DHT22;33252;48.122;11.538;2023-04-06T04:51:16;0.30;92.00
47520;DHT22;33252;48.122;11.538;2023-04-06T04:53:42;0.40;91.90
47520;DHT22;33252;48.122;11.538;2023-04-06T04:56:08;0.20;92.10
47520;DHT22;33252;48.122;11.538;2023-04-06T04:58:34;0.20;92.30
47520;DHT22;33252;48.122;11.538;2023-04-06T05:00:59;0.20;92.40
47520;DHT22;33252;48.122;11.538;2023-04-06T05:03:26;0.10;92.70
47520;DHT22;33252;48.122;11.538;2023-04-06T05:05:52;0.10;93.10
47520;DHT22;33252;48.122;11.538;2023-04-06T05:08:18;0.20;93.10
47520;DHT22;33252;48.122;11.538;2023-04-06T05:10:44;0.20;92.90
47520;DHT22;33252;48.122;11.538;2023-04-06T05:13:13;0.20;93.10
47520;DHT22;33252;48.122;11.538;2023-04-06T05:15:39;0.20;93.00
47520;DHT22;33252;48.122;11.538;2023-04-06T05:18:09;0.30;93.10
47520;DHT22;33252;48.122;11.538;2023-04-06T05:20:35;0.30;93.10
47520;DHT22;33252;48.122;11.538;2023-04-06T05:23:01;0.30;93.40
47520;DHT22;33252;48.122;11.538;2023-04-06T05:25:27;0.40;93.40
47520;DHT22;33252;48.122;11.538;2023-04-06T05:27:53;0.50;93.20
47520;DHT22;33252;48.122;11.538;2023-04-06T05:30:19;0.50;93.20
47520;DHT22;33252;48.122;11.538;2023-04-06T05:32:46;0.60;92.70
47520;DHT22;33252;48.122;11.538;2023-04-06T05:35:11;0.60;92.60
47520;DHT22;33252;48.122;11.538;2023-04-06T05:37:38;0.60;92.60
47520;DHT22;33252;48.122;11.538;2023-04-06T05:40:04;0.60;92.60
47520;DHT22;33252;48.122;11.538;2023-04-06T05:42:40;0.60;92.70
47520;DHT22;33252;48.122;11.538;2023-04-06T05:45:10;0.60;92.70
47520;DHT22;33252;48.122;11.538;2023-04-06T05:47:37;0.80;92.70
47520;DHT22;33252;48.122;11.538;2023-04-06T05:50:03;0.80;92.80
47520;DHT22;33252;48.122;11.538;2023-04-06T05:52:29;0.80;92.80
47520;DHT22;33252;48.122;11.538;2023-04-06T05:54:55;0.90;92.80
47520;DHT22;33252;48.122;11.538;2023-04-06T05:57:21;1.00;92.70
47520;DHT22;33252;48.122;11.538;2023-04-06T05:59:47;1.00;92.70
47520;DHT22;33252;48.122;11.538;2023-04-06T06:02:13;1.00;92.60
47520;DHT22;33252;48.122;11.538;2023-04-06T06:04:39;1.10;92.30
47520;DHT22;33252;48.122;11.538;2023-04-06T06:07:05;1.10;92.30
47520;DHT22;33252;48.122;11.538;2023-04-06T06:09:30;1.20;92.20
47520;DHT22;33252;48.122;11.538;2023-04-06T06:11:56;1.30;92.10
47520;DHT22;33252;48.122;11.538;2023-04-06T06:14:22;1.50;91.70
47520;DHT22;33252;48.122;11.538;2023-04-06T06:16:48;1.50;91.90
47520;DHT22;33252;48.122;11.538;2023-04-06T06:19:13;1.60;92.20
47520;DHT22;33252;48.122;11.538;2023-04-06T06:21:39;1.70;92.00
47520;DHT22;33252;48.122;11.538;2023-04-06T06:24:06;1.70;92.50
47520;DHT22;33252;48.122;11.538;2023-04-06T06:26:32;1.80;92.40
47520;DHT22;33252;48.122;11.538;2023-04-06T06:28:58;1.80;92.50
47520;DHT22;33252;48.122;11.538;2023-04-06T06:31:23;1.90;92.30
47520;DHT22;33252;48.122;11.538;2023-04-06T06:33:49;2.00;91.80
47520;DHT22;33252;48.122;11.538;2023-04-06T06:36:17;2.10;91.00
47520;DHT22;33252;48.122;11.538;2023-04-06T06:38:43;2.10;90.80
47520;DHT22;33252;48.122;11.538;2023-04-06T06:41:09;2.20;90.50
47520;DHT22;33252;48.122;11.538;2023-04-06T06:43:35;2.30;90.60
47520;DHT22;33252;48.122;11.538;2023-04-06T06:46:00;2.40;90.50
47520;DHT22;33252;48.122;11.538;2023-04-06T06:48:26;2.50;90.50
47520;DHT22;33252;48.122;11.538;2023-04-06T06:50:52;2.60;90.20
47520;DHT22;33252;48.122;11.538;2023-04-06T06:53:18;2.70;90.20
47520;DHT22;33252;48.122;11.538;2023-04-06T06:55:43;2.80;90.20
47520;DHT22;33252;48.122;11.538;2023-04-06T06:58:14;3.00;90.30
47520;DHT22;33252;48.122;11.538;2023-04-06T07:00:40;3.10;90.10
47520;DHT22;33252;48.122;11.538;2023-04-06T07:03:05;3.20;89.30
47520;DHT22;33252;48.122;11.538;2023-04-06T07:05:31;3.30;88.50
47520;DHT22;33252;48.122;11.538;2023-04-06T07:07:57;3.50;87.40
47520;DHT22;33252;48.122;11.538;2023-04-06T07:10:23;3.60;87.30
47520;DHT22;33252;48.122;11.538;2023-04-06T07:12:48;3.70;87.80
47520;DHT22;33252;48.122;11.538;2023-04-06T07:15:14;3.70;86.20
47520;DHT22;33252;48.122;11.538;2023-04-06T07:17:40;3.70;85.80
47520;DHT22;33252;48.122;11.538;2023-04-06T07:20:12;3.60;85.00
47520;DHT22;33252;48.122;11.538;2023-04-06T07:22:38;3.60;85.10
47520;DHT22;33252;48.122;11.538;2023-04-06T07:25:05;3.60;85.40
47520;DHT22;33252;48.122;11.538;2023-04-06T07:27:31;3.70;85.00
47520;DHT22;33252;48.122;11.538;2023-04-06T07:29:56;3.80;84.80
47520;DHT22;33252;48.122;11.538;2023-04-06T07:32:22;3.80;83.70
47520;DHT22;33252;48.122;11.538;2023-04-06T07:34:48;3.80;83.80
47520;DHT22;33252;48.122;11.538;2023-04-06T07:37:14;3.90;84.00
47520;DHT22;33252;48.122;11.538;2023-04-06T07:39:39;4.00;83.00
47520;DHT22;33252;48.122;11.538;2023-04-06T07:42:06;4.20;82.60
47520;DHT22;33252;48.122;11.538;2023-04-06T07:44:31;4.20;81.60
47520;DHT22;33252;48.122;11.538;2023-04-06T07:46:57;4.30;82.00
47520;DHT22;33252;48.122;11.538;2023-04-06T07:49:23;4.30;80.50
47520;DHT22;33252;48.122;11.538;2023-04-06T07:51:48;4.30;81.30
47520;DHT22;33252;48.122;11.538;2023-04-06T07:54:14;4.40;81.30
47520;DHT22;33252;48.122;11.538;2023-04-06T07:56:40;4.40;79.80
47520;DHT22;33252;48.122;11.538;2023-04-06T07:59:06;4.60;79.50
47520;DHT22;33252;48.122;11.538;2023-04-06T08:01:31;4.80;78.30
47520;DHT22;33252;48.122;11.538;2023-04-06T08:03:57;4.90;77.70
47520;DHT22;33252;48.122;11.538;2023-04-06T08:06:23;5.10;78.40
47520;DHT22;33252;48.122;11.538;2023-04-06T08:08:49;5.30;77.40
47520;DHT22;33252;48.122;11.538;2023-04-06T08:11:15;5.30;76.80
47520;DHT22;33252;48.122;11.538;2023-04-06T08:13:40;5.40;76.60
47520;DHT22;33252;48.122;11.538;2023-04-06T08:16:06;5.30;76.60
47520;DHT22;33252;48.122;11.538;2023-04-06T08:18:32;5.40;76.60
47520;DHT22;33252;48.122;11.538;2023-04-06T08:20:58;5.40;76.70
47520;DHT22;33252;48.122;11.538;2023-04-06T08:23:23;5.60;74.10
47520;DHT22;33252;48.122;11.538;2023-04-06T08:25:49;5.70;74.10
47520;DHT22;33252;48.122;11.538;2023-04-06T08:28:15;6.00;73.30
47520;DHT22;33252;48.122;11.538;2023-04-06T08:30:42;6.00;73.20
47520;DHT22;33252;48.122;11.538;2023-04-06T08:33:08;6.10;73.30
47520;DHT22;33252;48.122;11.538;2023-04-06T08:35:34;6.10;73.50
47520;DHT22;33252;48.122;11.538;2023-04-06T08:37:59;6.20;74.10
47520;DHT22;33252;48.122;11.538;2023-04-06T08:40:25;6.10;72.90
47520;DHT22;33252;48.122;11.538;2023-04-06T08:42:56;5.90;73.40
47520;DHT22;33252;48.122;11.538;2023-04-06T08:45:22;5.90;72.80
47520;DHT22;33252;48.122;11.538;2023-04-06T08:47:51;5.90;74.20
47520;DHT22;33252;48.122;11.538;2023-04-06T08:50:18;6.00;73.60
47520;DHT22;33252;48.122;11.538;2023-04-06T08:52:47;6.00;73.70
47520;DHT22;33252;48.122;11.538;2023-04-06T08:55:13;6.20;72.80
47520;DHT22;33252;48.122;11.538;2023-04-06T08:57:39;6.30;71.40
47520;DHT22;33252;48.122;11.538;2023-04-06T09:00:08;6.40;70.90
47520;DHT22;33252;48.122;11.538;2023-04-06T09:02:39;6.60;71.20
47520;DHT22;33252;48.122;11.538;2023-04-06T09:05:05;6.50;71.70
47520;DHT22;33252;48.122;11.538;2023-04-06T09:07:31;6.50;71.30
47520;DHT22;33252;48.122;11.538;2023-04-06T09:09:57;6.60;71.10
47520;DHT22;33252;48.122;11.538;2023-04-06T09:12:26;6.70;68.70
47520;DHT22;33252;48.122;11.538;2023-04-06T09:14:53;6.60;69.20
47520;DHT22;33252;48.122;11.538;2023-04-06T09:19:48;6.70;69.30
47520;DHT22;33252;48.122;11.538;2023-04-06T09:22:13;6.80;71.10
47520;DHT22;33252;48.122;11.538;2023-04-06T09:24:45;6.80;70.00
47520;DHT22;33252;48.122;11.538;2023-04-06T09:27:11;6.90;70.30
47520;DHT22;33252;48.122;11.538;2023-04-06T09:29:36;7.00;68.90
47520;DHT22;33252;48.122;11.538;2023-04-06T09:32:06;6.80;68.30
47520;DHT22;33252;48.122;11.538;2023-04-06T09:34:33;7.00;70.70
47520;DHT22;33252;48.122;11.538;2023-04-06T09:36:59;7.10;68.70
47520;DHT22;33252;48.122;11.538;2023-04-06T09:39:25;7.40;68.90
47520;DHT22;33252;48.122;11.538;2023-04-06T09:41:52;7.40;67.50
47520;DHT22;33252;48.122;11.538;2023-04-06T09:44:19;7.40;67.60
47520;DHT22;33252;48.122;11.538;2023-04-06T09:46:47;7.40;66.90
47520;DHT22;33252;48.122;11.538;2023-04-06T09:49:13;7.50;67.40
47520;DHT22;33252;48.122;11.538;2023-04-06T09:51:46;7.50;66.40
47520;DHT22;33252;48.122;11.538;2023-04-06T09:54:17;7.50;66.90
47520;DHT22;33252;48.122;11.538;2023-04-06T09:59:20;7.40;66.70
47520;DHT22;33252;48.122;11.538;2023-04-06T10:01:46;7.30;66.20
47520;DHT22;33252;48.122;11.538;2023-04-06T10:04:36;7.30;66.90
47520;DHT22;33252;48.122;11.538;2023-04-06T10:07:06;7.40;67.90
47520;DHT22;33252;48.122;11.538;2023-04-06T10:09:35;7.50;67.90
47520;DHT22;33252;48.122;11.538;2023-04-06T10:12:07;7.60;66.50
47520;DHT22;33252;48.122;11.538;2023-04-06T10:14:34;7.70;65.90
47520;DHT22;33252;48.122;11.538;2023-04-06T10:17:05;7.80;65.00
47520;DHT22;33252;48.122;11.538;2023-04-06T10:20:38;7.90;65.70
47520;DHT22;33252;48.122;11.538;2023-04-06T10:25:33;8.20;65.00
47520;DHT22;33252;48.122;11.538;2023-04-06T10:28:05;8.00;65.60
47520;DHT22;33252;48.122;11.538;2023-04-06T10:30:37;8.10;65.00
47520;DHT22;33252;48.122;11.538;2023-04-06T10:33:17;8.00;66.00
47520;DHT22;33252;48.122;11.538;2023-04-06T10:35:43;8.00;65.60
47520;DHT22;33252;48.122;11.538;2023-04-06T10:38:10;8.10;67.20
47520;DHT22;33252;48.122;11.538;2023-04-06T10:40:39;8.00;66.60
47520;DHT22;33252;48.122;11.538;2023-04-06T10:43:20;7.80;65.80
47520;DHT22;33252;48.122;11.538;2023-04-06T10:45:55;7.80;65.50
47520;DHT22;33252;48.122;11.538;2023-04-06T10:48:21;7.90;65.30
47520;DHT22;33252;48.122;11.538;2023-04-06T10:50:50;7.90;65.20
47520;DHT22;33252;48.122;11.538;2023-04-06T10:53:26;8.10;66.40
47520;DHT22;33252;48.122;11.538;2023-04-06T10:55:56;8.30;66.30
47520;DHT22;33252;48.122;11.538;2023-04-06T10:58:25;8.30;64.20
47520;DHT22;33252;48.122;11.538;2023-04-06T11:00:51;8.10;65.00
47520;DHT22;33252;48.122;11.538;2023-04-06T11:03:18;8.10;65.00
47520;DHT22;33252;48.122;11.538;2023-04-06T11:05:48;8.20;64.60
47520;DHT22;33252;48.122;11.538;2023-04-06T11:08:32;8.20;65.20
47520;DHT22;33252;48.122;11.538;2023-04-06T11:11:12;8.40;65.60
47520;DHT22;33252;48.122;11.538;2023-04-06T11:13:42;8.40;66.40
47520;DHT22;33252;48.122;11.538;2023-04-06T11:18:55;8.60;65.40
47520;DHT22;33252;48.122;11.538;2023-04-06T11:21:42;8.60;63.90
47520;DHT22;33252;48.122;11.538;2023-04-06T11:24:13;8.60;64.30
47520;DHT22;33252;48.122;11.538;2023-04-06T11:26:43;8.50;64.10
47520;DHT22;33252;48.122;11.538;2023-04-06T11:29:11;8.50;63.90
47520;DHT22;33252;48.122;11.538;2023-04-06T11:31:46;8.60;63.90
47520;DHT22;33252;48.122;11.538;2023-04-06T11:34:13;8.80;64.00
47520;DHT22;33252;48.122;11.538;2023-04-06T11:36:43;8.80;63.60
47520;DHT22;33252;48.122;11.538;2023-04-06T11:39:09;9.10;63.70
47520;DHT22;33252;48.122;11.538;2023-04-06T11:41:35;9.30;63.40
47520;DHT22;33252;48.122;11.538;2023-04-06T11:44:02;9.10;62.90
47520;DHT22;33252;48.122;11.538;2023-04-06T11:46:28;9.00;62.90
47520;DHT22;33252;48.122;11.538;2023-04-06T11:48:58;9.00;63.80
47520;DHT22;33252;48.122;11.538;2023-04-06T11:51:25;9.10;63.40
47520;DHT22;33252;48.122;11.538;2023-04-06T11:53:52;9.10;63.30
47520;DHT22;33252;48.122;11.538;2023-04-06T11:56:30;9.00;63.50
47520;DHT22;33252;48.122;11.538;2023-04-06T11:58:57;9.10;64.60
47520;DHT22;33252;48.122;11.538;2023-04-06T12:01:24;9.40;64.80
47520;DHT22;33252;48.122;11.538;2023-04-06T12:03:51;9.50;63.90
47520;DHT22;33252;48.122;11.538;2023-04-06T12:06:17;9.30;63.30
47520;DHT22;33252;48.122;11.538;2023-04-06T12:08:43;9.20;64.20
47520;DHT22;33252;48.122;11.538;2023-04-06T12:11:10;9.30;64.70
47520;DHT22;33252;48.122;11.538;2023-04-06T12:13:36;9.40;63.60
47520;DHT22;33252;48.122;11.538;2023-04-06T12:16:01;9.50;62.40
47520;DHT22;33252;48.122;11.538;2023-04-06T12:18:27;9.80;61.70
47520;DHT22;33252;48.122;11.538;2023-04-06T12:20:53;10.00;62.00
47520;DHT22;33252;48.122;11.538;2023-04-06T12:23:19;10.10;60.60
47520;DHT22;33252;48.122;11.538;2023-04-06T12:25:45;10.10;60.70
47520;DHT22;33252;48.122;11.538;2023-04-06T12:28:11;10.10;61.70
47520;DHT22;33252;48.122;11.538;2023-04-06T12:30:37;10.30;61.00
47520;DHT22;33252;48.122;11.538;2023-04-06T12:33:03;10.80;61.50
47520;DHT22;33252;48.122;11.538;2023-04-06T12:35:32;11.00;59.80
47520;DHT22;33252;48.122;11.538;2023-04-06T12:37:58;11.00;59.10
47520;DHT22;33252;48.122;11.538;2023-04-06T12:40:24;11.00;59.20
47520;DHT22;33252;48.122;11.538;2023-04-06T12:42:49;11.40;58.60
47520;DHT22;33252;48.122;11.538;2023-04-06T12:45:15;11.00;58.50
47520;DHT22;33252;48.122;11.538;2023-04-06T12:47:41;11.40;57.60
47520;DHT22;33252;48.122;11.538;2023-04-06T12:50:07;11.70;57.00
47520;DHT22;33252;48.122;11.538;2023-04-06T12:52:33;11.90;55.60
47520;DHT22;33252;48.122;11.538;2023-04-06T12:55:01;11.40;56.50
47520;DHT22;33252;48.122;11.538;2023-04-06T12:57:27;11.40;57.10
47520;DHT22;33252;48.122;11.538;2023-04-06T12:59:53;11.20;57.60
47520;DHT22;33252;48.122;11.538;2023-04-06T13:02:19;10.90;58.70
47520;DHT22;33252;48.122;11.538;2023-04-06T13:04:48;11.00;59.10
47520;DHT22;33252;48.122;11.538;2023-04-06T13:07:14;10.70;58.70
47520;DHT22;33252;48.122;11.538;2023-04-06T13:09:40;11.30;59.00
47520;DHT22;33252;48.122;11.538;2023-04-06T13:12:06;11.20;58.90
47520;DHT22;33252;48.122;11.538;2023-04-06T13:14:32;10.90;59.00
47520;DHT22;33252;48.122;11.538;2023-04-06T13:16:57;10.80;58.80
47520;DHT22;33252;48.122;11.538;2023-04-06T13:19:23;10.90;59.10
47520;DHT22;33252;48.122;11.538;2023-04-06T13:21:49;13.30;56.10
47520;DHT22;33252;48.122;11.538;2023-04-06T13:24:15;14.40;52.80
47520;DHT22;33252;48.122;11.538;2023-04-06T13:26:41;13.20;53.60
47520;DHT22;33252;48.122;11.538;2023-04-06T13:29:06;13.10;55.30
47520;DHT22;33252;48.122;11.538;2023-04-06T13:31:32;13.40;54.40
47520;DHT22;33252;48.122;11.538;2023-04-06T13:33:58;15.10;52.90
47520;DHT22;33252;48.122;11.538;2023-04-06T13:36:24;15.10;50.50
47520;DHT22;33252;48.122;11.538;2023-04-06T13:38:52;13.30;54.20
47520;DHT22;33252;48.122;11.538;2023-04-06T13:41:19;13.10;54.30
47520;DHT22;33252;48.122;11.538;2023-04-06T13:43:46;12.00;56.60
47520;DHT22;33252;48.122;11.538;2023-04-06T13:46:12;11.70;57.60
47520;DHT22;33252;48.122;11.538;2023-04-06T13:48:37;13.80;53.50
47520;DHT22;33252;48.122;11.538;2023-04-06T13:51:13;15.10;52.20
47520;DHT22;33252;48.122;11.538;2023-04-06T13:53:39;16.80;50.70
47520;DHT22;33252;48.122;11.538;2023-04-06T13:56:06;17.20;46.20
47520;DHT22;33252;48.122;11.538;2023-04-06T13:58:32;16.50;48.60
47520;DHT22;33252;48.122;11.538;2023-04-06T14:01:05;14.50;50.20
47520;DHT22;33252;48.122;11.538;2023-04-06T14:03:32;13.60;53.60
47520;DHT22;33252;48.122;11.538;2023-04-06T14:05:57;14.70;51.60
47520;DHT22;33252;48.122;11.538;2023-04-06T14:08:23;14.60;51.10
47520;DHT22;33252;48.122;11.538;2023-04-06T14:10:49;15.40;50.50
47520;DHT22;33252;48.122;11.538;2023-04-06T14:13:14;15.00;51.90
47520;DHT22;33252;48.122;11.538;2023-04-06T14:15:40;16.90;49.80
47520;DHT22;33252;48.122;11.538;2023-04-06T14:18:07;18.50;47.20
47520;DHT22;33252;48.122;11.538;2023-04-06T14:20:33;18.40;47.70
47520;DHT22;33252;48.122;11.538;2023-04-06T14:23:02;18.00;46.60
47520;DHT22;33252;48.122;11.538;2023-04-06T14:25:29;18.20;46.10
47520;DHT22;33252;48.122;11.538;2023-04-06T14:27:57;17.40;47.70
47520;DHT22;33252;48.122;11.538;2023-04-06T14:30:23;14.80;50.00
47520;DHT22;33252;48.122;11.538;2023-04-06T14:32:48;13.90;52.20
47520;DHT22;33252;48.122;11.538;2023-04-06T14:35:14;12.60;54.40
47520;DHT22;33252;48.122;11.538;2023-04-06T14:37:39;12.40;55.40
47520;DHT22;33252;48.122;11.538;2023-04-06T14:40:06;12.30;55.10
47520;DHT22;33252;48.122;11.538;2023-04-06T14:42:31;12.20;55.90
47520;DHT22;33252;48.122;11.538;2023-04-06T14:44:57;11.70;56.70
47520;DHT22;33252;48.122;11.538;2023-04-06T14:47:23;11.40;55.50
47520;DHT22;33252;48.122;11.538;2023-04-06T14:49:51;11.40;56.30
47520;DHT22;33252;48.122;11.538;2023-04-06T14:52:17;11.40;56.80
47520;DHT22;33252;48.122;11.538;2023-04-06T14:54:42;11.40;57.10
47520;DHT22;33252;48.122;11.538;2023-04-06T14:57:08;11.30;57.10
47520;DHT22;33252;48.122;11.538;2023-04-06T14:59:34;11.30;57.30
47520;DHT22;33252;48.122;11.538;2023-04-06T15:02:01;11.40;56.50
47520;DHT22;33252;48.122;11.538;2023-04-06T15:04:28;11.30;56.90
47520;DHT22;33252;48.122;11.538;2023-04-06T15:06:55;12.60;54.90
47520;DHT22;33252;48.122;11.538;2023-04-06T15:09:20;12.80;53.90
47520;DHT22;33252;48.122;11.538;2023-04-06T15:11:47;12.30;56.10
47520;DHT22;33252;48.122;11.538;2023-04-06T15:14:12;12.50;54.20
47520;DHT22;33252;48.122;11.538;2023-04-06T15:16:38;13.20;53.00
47520;DHT22;33252;48.122;11.538;2023-04-06T15:19:04;13.70;52.90
47520;DHT22;33252;48.122;11.538;2023-04-06T15:21:29;14.30;51.70
47520;DHT22;33252;48.122;11.538;2023-04-06T15:23:56;14.50;51.00
47520;DHT22;33252;48.122;11.538;2023-04-06T15:26:22;14.10;50.10
47520;DHT22;33252;48.122;11.538;2023-04-06T15:28:47;13.30;51.10
47520;DHT22;33252;48.122;11.538;2023-04-06T15:31:17;12.60;52.10
47520;DHT22;33252;48.122;11.538;2023-04-06T15:33:43;12.40;53.00
47520;DHT22;33252;48.122;11.538;2023-04-06T15:36:38;12.10;53.40